createdAt,value
2023-01-07T00:01:43.803Z,95.15
2023-01-07T00:04:16.396Z,94.68
2023-01-07T00:06:45.384Z,95.33
2023-01-07T00:09:18.590Z,94.21
2023-01-07T00:11:45.953Z,94.94
2023-01-07T00:14:14.357Z,96.13
2023-01-07T00:16:43.069Z,95.74
2023-01-07T00:19:15.658Z,95.65
2023-01-07T00:21:43.283Z,95.76
2023-01-07T00:24:12.070Z,95.67
2023-01-07T00:26:40.868Z,96.35
2023-01-07T00:29:08.294Z,95.90
2023-01-07T00:31:39.688Z,95.42
2023-01-07T00:34:10.909Z,96.19
2023-01-07T00:36:45.693Z,96.09
2023-01-07T00:39:20.677Z,95.21
2023-01-07T00:42:07.254Z,95.19
2023-01-07T00:44:34.814Z,95.08
2023-01-07T00:47:02.037Z,95.54
2023-01-07T00:49:29.651Z,95.78
2023-01-07T00:51:56.795Z,95.63
2023-01-07T00:54:24.344Z,96.18
2023-01-07T00:56:51.514Z,96.32
2023-01-07T00:59:18.680Z,95.94
2023-01-07T01:01:45.979Z,95.78
2023-01-07T01:04:13.194Z,96.20
2023-01-07T01:06:40.223Z,96.02
2023-01-07T01:09:07.503Z,96.07
2023-01-07T01:11:34.730Z,95.83
2023-01-07T01:14:01.763Z,96.01
2023-01-07T01:16:28.884Z,95.96
2023-01-07T01:18:56.034Z,95.93
2023-01-07T01:21:23.018Z,95.62
2023-01-07T01:23:50.169Z,95.45
2023-01-07T01:26:17.785Z,95.99
2023-01-07T01:28:45.834Z,96.70
2023-01-07T01:31:13.481Z,96.03
2023-01-07T01:33:41.074Z,95.65
2023-01-07T01:36:11.976Z,95.58
2023-01-07T01:38:40.262Z,95.25
2023-01-07T01:41:08.053Z,94.95
2023-01-07T01:43:40.048Z,94.55
2023-01-07T01:46:41.663Z,95.00
2023-01-07T01:49:29.917Z,95.16
2023-01-07T01:52:17.646Z,96.13
2023-01-07T01:54:54.771Z,96.18
2023-01-07T01:57:22.957Z,96.03
2023-01-07T01:59:51.818Z,96.34
2023-01-07T02:02:30.727Z,96.28
2023-01-07T02:04:58.428Z,95.90
2023-01-07T02:07:25.882Z,95.80
2023-01-07T02:10:21.513Z,95.75
2023-01-07T02:13:06.545Z,96.61
2023-01-07T02:15:51.455Z,95.76
2023-01-07T02:19:02.800Z,94.24
2023-01-07T02:22:10.336Z,94.60
2023-01-07T02:25:27.267Z,95.35
2023-01-07T02:28:50.082Z,95.52
2023-01-07T02:32:08.640Z,96.11
2023-01-07T02:35:21.520Z,95.26
2023-01-07T02:38:05.652Z,95.34
2023-01-07T02:40:58.271Z,95.73
2023-01-07T02:43:57.543Z,96.35
2023-01-07T02:47:14.081Z,96.27
2023-01-07T02:49:41.163Z,96.91
2023-01-07T02:52:35.447Z,96.39
2023-01-07T02:55:17.882Z,96.88
2023-01-07T02:58:33.264Z,97.48
2023-01-07T03:01:56.563Z,97.37
2023-01-07T03:04:54.054Z,97.46
2023-01-07T03:07:53.293Z,97.89
2023-01-07T03:10:55.847Z,96.95
2023-01-07T03:14:05.779Z,97.71
2023-01-07T03:17:05.941Z,97.50
2023-01-07T03:19:38.553Z,96.27
2023-01-07T03:22:10.178Z,96.39
2023-01-07T03:24:40.245Z,96.34
2023-01-07T03:27:09.277Z,97.35
2023-01-07T03:29:36.480Z,97.30
2023-01-07T03:32:23.439Z,97.66
2023-01-07T03:34:50.945Z,96.96
2023-01-07T03:37:23.380Z,97.48
2023-01-07T03:39:51.295Z,97.73
2023-01-07T03:42:40.100Z,97.74
2023-01-07T03:45:22.152Z,97.04
2023-01-07T03:47:55.509Z,97.51
2023-01-07T03:50:23.527Z,97.87
2023-01-07T03:52:51.257Z,97.33
2023-01-07T03:55:19.023Z,97.34
2023-01-07T03:57:46.396Z,97.63
2023-01-07T04:00:15.362Z,97.09
2023-01-07T04:02:43.568Z,97.24
2023-01-07T04:05:11.499Z,97.51
2023-01-07T04:07:38.720Z,97.41
2023-01-07T04:10:08.717Z,96.99
2023-01-07T04:12:35.930Z,97.43
2023-01-07T04:15:04.793Z,98.17
2023-01-07T04:17:31.796Z,98.21
2023-01-07T04:19:58.795Z,98.14
2023-01-07T04:22:26.000Z,97.67
2023-01-07T04:24:53.331Z,97.68
2023-01-07T04:27:20.389Z,97.30
2023-01-07T04:29:47.487Z,97.08
2023-01-07T04:32:14.455Z,97.47
2023-01-07T04:34:41.485Z,96.74
2023-01-07T04:37:08.521Z,97.63
2023-01-07T04:39:35.592Z,98.46
2023-01-07T04:42:02.654Z,99.18
2023-01-07T04:44:29.712Z,98.29
2023-01-07T04:46:56.693Z,97.84
2023-01-07T04:49:23.711Z,97.72
2023-01-07T04:51:50.767Z,98.10
2023-01-07T04:54:17.828Z,97.87
2023-01-07T04:56:45.725Z,97.68
2023-01-07T04:59:12.731Z,98.51
2023-01-07T05:01:39.928Z,98.17
2023-01-07T05:04:07.035Z,97.98
2023-01-07T05:06:34.119Z,98.26
2023-01-07T05:09:01.215Z,97.13
2023-01-07T05:11:28.242Z,97.90
2023-01-07T05:13:55.357Z,97.93
2023-01-07T05:16:22.410Z,97.39
2023-01-07T05:18:49.474Z,97.54
2023-01-07T05:21:17.926Z,97.88
2023-01-07T05:23:44.978Z,97.95
2023-01-07T05:26:12.074Z,98.79
2023-01-07T05:28:39.048Z,99.28
2023-01-07T05:31:06.117Z,98.84
2023-01-07T05:33:33.182Z,98.71
2023-01-07T05:36:00.248Z,98.25
2023-01-07T05:38:27.315Z,98.46
2023-01-07T05:40:54.412Z,98.42
2023-01-07T05:43:21.608Z,98.54
2023-01-07T05:45:48.718Z,98.45
2023-01-07T05:48:16.324Z,98.69
2023-01-07T05:50:43.729Z,98.89
2023-01-07T05:53:10.825Z,99.06
2023-01-07T05:55:40.996Z,99.38
2023-01-07T05:58:08.493Z,99.37
2023-01-07T06:00:39.458Z,99.12
2023-01-07T06:03:07.067Z,98.65
2023-01-07T06:05:34.174Z,98.29
2023-01-07T06:08:01.284Z,98.03
2023-01-07T06:10:28.498Z,98.40
2023-01-07T06:12:55.560Z,98.45
2023-01-07T06:15:22.723Z,98.75
2023-01-07T06:17:49.869Z,98.82
2023-01-07T06:20:17.159Z,98.77
2023-01-07T06:22:44.275Z,98.24
2023-01-07T06:25:13.121Z,97.88
2023-01-07T06:27:40.883Z,98.28
2023-01-07T06:30:12.375Z,98.21
2023-01-07T06:32:44.149Z,98.39
2023-01-07T06:35:12.343Z,98.47
2023-01-07T06:37:39.619Z,99.22
2023-01-07T06:40:08.931Z,98.92
2023-01-07T06:42:36.040Z,99.20
2023-01-07T06:45:03.386Z,98.83
2023-01-07T06:47:30.530Z,98.70
2023-01-07T06:49:57.637Z,98.26
2023-01-07T06:52:24.913Z,98.46
2023-01-07T06:54:54.440Z,98.19
2023-01-07T06:57:21.622Z,98.21
2023-01-07T06:59:48.757Z,98.37
2023-01-07T07:02:26.669Z,98.91
2023-01-07T07:04:54.844Z,97.99
2023-01-07T07:07:22.582Z,98.22
2023-01-07T07:09:53.173Z,98.66
2023-01-07T07:12:20.360Z,98.72
2023-01-07T07:14:47.578Z,98.46
2023-01-07T07:17:14.767Z,98.88
2023-01-07T07:19:41.864Z,98.64
2023-01-07T07:22:09.322Z,99.35
2023-01-07T07:24:36.469Z,98.88
2023-01-07T07:27:03.864Z,98.65
2023-01-07T07:29:30.963Z,99.14
2023-01-07T07:31:58.161Z,98.67
2023-01-07T07:34:25.306Z,99.32
2023-01-07T07:36:52.355Z,99.11
2023-01-07T07:39:19.563Z,99.00
2023-01-07T07:41:46.757Z,98.59
2023-01-07T07:44:14.060Z,98.97
2023-01-07T07:46:42.123Z,99.62
2023-01-07T07:49:12.012Z,99.84
2023-01-07T07:51:39.312Z,100.00
2023-01-07T07:54:06.385Z,100.00
2023-01-07T07:56:33.512Z,99.87
2023-01-07T07:59:00.562Z,100.00
2023-01-07T08:01:27.885Z,100.00
2023-01-07T08:03:55.055Z,100.00
2023-01-07T08:06:22.188Z,100.00
2023-01-07T08:08:49.298Z,100.00
2023-01-07T08:11:16.527Z,99.90
2023-01-07T08:13:43.691Z,100.00
2023-01-07T08:16:10.900Z,99.69
2023-01-07T08:18:39.810Z,99.99
2023-01-07T08:21:07.042Z,99.73
2023-01-07T08:23:34.922Z,99.76
2023-01-07T08:26:06.063Z,100.00
2023-01-07T08:28:36.676Z,100.00
2023-01-07T08:31:06.939Z,100.00
2023-01-07T08:33:38.584Z,100.00
2023-01-07T08:36:18.104Z,100.00
2023-01-07T08:38:54.903Z,100.00
2023-01-07T08:41:24.624Z,100.00
2023-01-07T08:43:53.667Z,100.00
2023-01-07T08:46:21.012Z,100.00
2023-01-07T08:48:48.223Z,100.00
2023-01-07T08:51:15.475Z,100.00
2023-01-07T08:53:42.612Z,99.87
2023-01-07T08:56:09.769Z,100.00
2023-01-07T08:58:38.436Z,99.99
2023-01-07T09:01:07.820Z,100.00
2023-01-07T09:03:35.769Z,100.00
2023-01-07T09:06:02.989Z,100.00
2023-01-07T09:08:30.051Z,100.00
2023-01-07T09:10:57.297Z,100.00
2023-01-07T09:13:24.645Z,99.60
2023-01-07T09:15:53.034Z,99.21
2023-01-07T09:18:21.539Z,99.11
2023-01-07T09:20:48.624Z,99.50
2023-01-07T09:23:15.747Z,100.00
2023-01-07T09:25:43.097Z,99.58
2023-01-07T09:28:10.188Z,99.71
2023-01-07T09:30:37.486Z,99.34
2023-01-07T09:33:05.485Z,100.00
2023-01-07T09:35:32.667Z,99.20
2023-01-07T09:37:59.718Z,99.77
2023-01-07T09:40:38.927Z,99.55
2023-01-07T09:43:25.120Z,100.00
2023-01-07T09:46:00.749Z,99.58
2023-01-07T09:48:35.334Z,99.32
2023-01-07T09:51:24.771Z,100.00
2023-01-07T09:53:59.418Z,99.22
2023-01-07T09:56:32.612Z,100.00
2023-01-07T09:59:01.892Z,99.53
2023-01-07T10:01:55.770Z,99.15
2023-01-07T10:04:42.431Z,99.60
2023-01-07T10:08:30.533Z,99.94
2023-01-07T10:11:44.207Z,100.00
2023-01-07T10:14:59.181Z,99.49
2023-01-07T10:18:19.842Z,99.82
2023-01-07T10:21:36.330Z,99.49
2023-01-07T10:24:22.423Z,98.83
2023-01-07T10:26:56.577Z,99.12
2023-01-07T10:29:48.983Z,99.63
2023-01-07T10:32:22.345Z,98.71
2023-01-07T10:34:56.390Z,99.42
2023-01-07T10:37:42.415Z,99.23
2023-01-07T10:41:05.867Z,98.81
2023-01-07T10:44:26.145Z,98.31
2023-01-07T10:47:29.904Z,98.28
2023-01-07T10:50:52.829Z,98.49
2023-01-07T10:53:39.981Z,98.39
2023-01-07T10:56:36.885Z,98.57
2023-01-07T10:59:05.116Z,98.28
2023-01-07T11:01:39.674Z,97.74
2023-01-07T11:04:16.617Z,97.31
2023-01-07T11:06:58.553Z,97.89
2023-01-07T11:09:44.126Z,98.12
2023-01-07T11:12:43.078Z,97.64
2023-01-07T11:15:29.438Z,97.34
2023-01-07T11:18:04.833Z,97.63
2023-01-07T11:20:58.544Z,97.29
2023-01-07T11:23:38.152Z,96.52
2023-01-07T11:26:28.709Z,96.34
2023-01-07T11:29:37.351Z,96.26
2023-01-07T11:32:06.313Z,96.55
2023-01-07T11:34:51.130Z,96.74
2023-01-07T11:37:46.643Z,94.98
2023-01-07T11:40:13.794Z,94.91
2023-01-07T11:42:58.348Z,94.09
2023-01-07T11:45:30.848Z,93.85
2023-01-07T11:48:29.053Z,93.94
2023-01-07T11:51:06.715Z,93.60
2023-01-07T11:53:45.754Z,92.34
2023-01-07T11:56:19.828Z,92.48
2023-01-07T11:59:11.182Z,91.75
2023-01-07T12:01:53.958Z,91.28
2023-01-07T12:04:35.662Z,91.10
2023-01-07T12:07:16.709Z,90.14
2023-01-07T12:09:46.020Z,89.29
2023-01-07T12:12:39.399Z,89.07
2023-01-07T12:15:37.645Z,88.61
2023-01-07T12:18:07.665Z,88.20
2023-01-07T12:21:22.596Z,87.85
2023-01-07T12:25:07.744Z,87.78
2023-01-07T12:28:16.652Z,88.21
2023-01-07T12:31:02.718Z,88.15
2023-01-07T12:33:43.569Z,87.78
2023-01-07T12:36:54.354Z,87.58
2023-01-07T12:39:41.039Z,88.41
2023-01-07T12:42:24.844Z,87.68
2023-01-07T12:45:04.034Z,87.01
2023-01-07T12:47:41.952Z,87.28
2023-01-07T12:50:37.241Z,87.66
2023-01-07T12:53:45.685Z,87.83
2023-01-07T12:56:29.016Z,88.23
2023-01-07T12:59:45.737Z,88.05
2023-01-07T13:02:39.138Z,87.83
2023-01-07T13:05:36.311Z,87.74
2023-01-07T13:08:57.315Z,86.96
2023-01-07T13:11:58.283Z,87.40
2023-01-07T13:14:52.181Z,87.11
2023-01-07T13:17:31.411Z,86.89
2023-01-07T13:19:58.979Z,86.57
2023-01-07T13:22:55.431Z,86.00
2023-01-07T13:25:54.722Z,86.32
2023-01-07T13:28:56.931Z,86.42
2023-01-07T13:32:17.457Z,86.45
2023-01-07T13:35:27.197Z,86.71
2023-01-07T13:38:10.659Z,86.58
2023-01-07T13:40:52.423Z,86.46
2023-01-07T13:44:18.253Z,86.67
2023-01-07T13:46:46.652Z,87.16
2023-01-07T13:49:32.822Z,87.14
2023-01-07T13:52:21.910Z,86.97
2023-01-07T13:54:48.974Z,86.59
2023-01-07T13:57:31.116Z,86.75
2023-01-07T14:00:02.008Z,86.65
2023-01-07T14:02:57.844Z,86.11
2023-01-07T14:05:30.265Z,86.24
2023-01-07T14:08:03.450Z,86.50
2023-01-07T14:10:36.755Z,86.52
2023-01-07T14:13:41.680Z,86.94
2023-01-07T14:16:19.333Z,86.54
2023-01-07T14:19:31.728Z,86.16
2023-01-07T14:22:31.379Z,87.04
2023-01-07T14:25:42.517Z,86.63
2023-01-07T14:28:58.410Z,86.63
2023-01-07T14:31:29.918Z,86.58
2023-01-07T14:34:07.076Z,86.51
2023-01-07T14:37:02.030Z,87.13
2023-01-07T14:39:46.694Z,87.62
2023-01-07T14:42:19.676Z,87.43
2023-01-07T14:44:51.296Z,88.17
2023-01-07T14:47:46.038Z,88.36
2023-01-07T14:50:32.847Z,88.49
2023-01-07T14:53:59.917Z,88.58
2023-01-07T14:57:06.115Z,89.23
2023-01-07T14:59:49.538Z,90.00
2023-01-07T15:03:19.183Z,90.00
2023-01-07T15:06:28.800Z,90.34
2023-01-07T15:09:50.587Z,89.97
2023-01-07T15:12:46.093Z,91.79
2023-01-07T15:15:44.390Z,91.26
2023-01-07T15:18:13.266Z,91.34
2023-01-07T15:21:26.228Z,91.74
2023-01-07T15:24:48.251Z,91.49
2023-01-07T15:27:29.799Z,92.42
2023-01-07T15:30:46.204Z,92.50
2023-01-07T15:33:50.562Z,92.36
2023-01-07T15:36:20.933Z,91.88
2023-01-07T15:38:59.081Z,91.62
2023-01-07T15:41:39.944Z,92.27
2023-01-07T15:44:29.076Z,92.05
2023-01-07T15:46:56.796Z,92.05
2023-01-07T15:49:27.806Z,92.52
2023-01-07T15:51:59.109Z,93.24
2023-01-07T15:54:31.155Z,93.83
2023-01-07T15:57:07.581Z,93.70
2023-01-07T15:59:58.383Z,93.79
2023-01-07T16:02:51.945Z,93.09
2023-01-07T16:05:19.995Z,92.85
2023-01-07T16:07:59.555Z,93.02
2023-01-07T16:10:35.106Z,92.59
2023-01-07T16:13:15.480Z,93.09
2023-01-07T16:15:42.627Z,92.88
2023-01-07T16:18:09.476Z,93.56
2023-01-07T16:20:50.714Z,93.76
2023-01-07T16:23:26.659Z,93.32
2023-01-07T16:26:12.381Z,92.13
2023-01-07T16:28:56.721Z,92.24
2023-01-07T16:31:27.884Z,92.56
2023-01-07T16:33:59.063Z,92.26
2023-01-07T16:36:37.059Z,91.73
2023-01-07T16:39:24.002Z,91.86
2023-01-07T16:42:16.439Z,92.03
2023-01-07T16:44:44.344Z,92.12
2023-01-07T16:47:34.586Z,91.70
2023-01-07T16:50:19.998Z,92.01
2023-01-07T16:52:56.393Z,92.85
2023-01-07T16:55:54.589Z,92.47
2023-01-07T16:58:27.097Z,92.33
2023-01-07T17:00:59.751Z,92.11
2023-01-07T17:03:28.217Z,92.02
2023-01-07T17:06:07.818Z,92.05
2023-01-07T17:08:36.319Z,91.71
2023-01-07T17:11:21.407Z,92.47
2023-01-07T17:13:51.368Z,91.81
2023-01-07T17:16:38.508Z,91.36
2023-01-07T17:19:33.361Z,91.50
2023-01-07T17:22:00.778Z,91.97
2023-01-07T17:24:30.806Z,91.35
2023-01-07T17:27:04.818Z,91.64
2023-01-07T17:29:39.343Z,92.32
2023-01-07T17:32:06.858Z,91.77
2023-01-07T17:34:33.946Z,91.33
2023-01-07T17:37:01.001Z,90.61
2023-01-07T17:39:28.038Z,90.00
2023-01-07T17:42:14.966Z,89.84
2023-01-07T17:44:42.202Z,89.66
2023-01-07T17:47:12.821Z,91.08
2023-01-07T17:49:39.920Z,91.08
2023-01-07T17:52:09.254Z,90.69
2023-01-07T17:54:36.966Z,90.42
2023-01-07T17:57:04.081Z,91.15
2023-01-07T17:59:31.488Z,90.89
2023-01-07T18:02:00.490Z,90.53
2023-01-07T18:04:27.735Z,90.70
2023-01-07T18:06:54.765Z,91.13
2023-01-07T18:09:21.860Z,91.14
2023-01-07T18:12:10.815Z,91.71
2023-01-07T18:14:37.911Z,91.53
2023-01-07T18:17:07.291Z,91.65
2023-01-07T18:19:34.401Z,92.28
2023-01-07T18:22:01.543Z,91.58
2023-01-07T18:24:28.637Z,91.59
2023-01-07T18:26:56.652Z,91.15
2023-01-07T18:29:23.937Z,91.23
2023-01-07T18:31:51.119Z,91.74
2023-01-07T18:34:18.524Z,91.64
2023-01-07T18:36:45.818Z,90.24
2023-01-07T18:39:20.348Z,91.44
2023-01-07T18:41:50.942Z,91.19
2023-01-07T18:44:20.667Z,90.77
2023-01-07T18:46:47.769Z,90.98
2023-01-07T18:49:15.290Z,91.75
2023-01-07T18:51:42.432Z,90.92
2023-01-07T18:54:09.578Z,90.09
2023-01-07T18:56:36.727Z,90.72
2023-01-07T18:59:03.880Z,90.67
2023-01-07T19:01:31.153Z,90.81
2023-01-07T19:03:58.391Z,89.94
2023-01-07T19:06:25.518Z,90.33
2023-01-07T19:08:52.639Z,89.95
2023-01-07T19:11:19.742Z,90.81
2023-01-07T19:13:46.860Z,91.01
2023-01-07T19:16:14.130Z,90.95
2023-01-07T19:18:41.542Z,92.29
2023-01-07T19:21:12.644Z,92.49
2023-01-07T19:23:39.846Z,92.40
2023-01-07T19:26:10.918Z,93.56
2023-01-07T19:28:40.002Z,93.64
2023-01-07T19:31:09.290Z,93.55
2023-01-07T19:33:36.851Z,93.88
2023-01-07T19:36:11.855Z,93.98
2023-01-07T19:38:45.062Z,93.62
2023-01-07T19:41:19.444Z,93.95
2023-01-07T19:43:47.835Z,93.56
2023-01-07T19:46:16.979Z,93.27
2023-01-07T19:48:47.232Z,93.50
2023-01-07T19:51:15.907Z,93.34
2023-01-07T19:53:43.059Z,93.84
2023-01-07T19:56:12.588Z,93.89
2023-01-07T19:58:41.713Z,93.83
2023-01-07T20:01:18.352Z,94.03
2023-01-07T20:03:46.044Z,93.98
2023-01-07T20:06:19.466Z,93.33
2023-01-07T20:08:47.396Z,93.07
2023-01-07T20:11:15.502Z,91.87
2023-01-07T20:13:46.738Z,91.92
2023-01-07T20:16:22.257Z,92.27
2023-01-07T20:18:53.573Z,91.36
2023-01-07T20:21:27.603Z,91.37
2023-01-07T20:23:55.197Z,92.11
2023-01-07T20:26:29.637Z,91.30
2023-01-07T20:28:58.899Z,91.24
2023-01-07T20:31:29.107Z,91.12
2023-01-07T20:33:57.388Z,91.22
2023-01-07T20:36:30.086Z,90.76
2023-01-07T20:38:57.456Z,91.96
2023-01-07T20:41:27.443Z,91.59
2023-01-07T20:44:00.989Z,90.57
2023-01-07T20:46:30.406Z,90.43
2023-01-07T20:48:57.989Z,91.21
2023-01-07T20:51:25.603Z,90.56
2023-01-07T20:53:52.991Z,89.75
2023-01-07T20:56:26.238Z,89.88
2023-01-07T20:58:53.302Z,90.92
2023-01-07T21:01:21.945Z,89.80
2023-01-07T21:03:49.959Z,90.15
2023-01-07T21:06:20.152Z,90.44
2023-01-07T21:08:49.107Z,89.12
2023-01-07T21:11:25.532Z,88.89
2023-01-07T21:13:55.884Z,88.98
2023-01-07T21:16:25.900Z,88.16
2023-01-07T21:18:53.022Z,87.96
2023-01-07T21:21:26.714Z,86.72
2023-01-07T21:23:54.606Z,86.92
2023-01-07T21:26:23.038Z,85.43
2023-01-07T21:28:55.877Z,85.90
2023-01-07T21:31:25.405Z,85.57
2023-01-07T21:33:57.626Z,85.56
2023-01-07T21:36:27.300Z,84.92
2023-01-07T21:38:58.479Z,85.59
2023-01-07T21:41:28.391Z,85.78
2023-01-07T21:43:56.278Z,85.95
2023-01-07T21:46:23.839Z,86.03
2023-01-07T21:48:51.982Z,85.78
2023-01-07T21:51:26.592Z,85.43
2023-01-07T21:53:56.972Z,86.30
2023-01-07T21:56:28.708Z,86.62
2023-01-07T21:58:55.764Z,85.09
2023-01-07T22:01:28.521Z,85.37
2023-01-07T22:03:58.847Z,85.96
2023-01-07T22:06:31.825Z,85.69
2023-01-07T22:09:06.636Z,85.01
2023-01-07T22:11:38.559Z,85.32
2023-01-07T22:14:05.732Z,84.41
2023-01-07T22:16:33.167Z,84.20
2023-01-07T22:19:01.359Z,84.09
2023-01-07T22:21:29.052Z,84.15
2023-01-07T22:23:56.195Z,83.78
2023-01-07T22:26:24.069Z,84.41
2023-01-07T22:29:03.329Z,85.14
2023-01-07T22:31:36.635Z,85.38
2023-01-07T22:34:06.890Z,84.58
2023-01-07T22:37:14.159Z,84.68
2023-01-07T22:39:57.564Z,84.99
2023-01-07T22:43:02.428Z,84.90
2023-01-07T22:45:55.304Z,84.56
2023-01-07T22:48:27.302Z,85.77
2023-01-07T22:51:06.570Z,84.90
2023-01-07T22:53:33.888Z,85.07
2023-01-07T22:56:02.637Z,85.56
2023-01-07T22:58:29.920Z,85.37
2023-01-07T23:00:59.945Z,85.29
2023-01-07T23:03:27.161Z,84.71
2023-01-07T23:05:54.256Z,85.35
2023-01-07T23:08:21.361Z,84.74
2023-01-07T23:10:48.754Z,84.39
2023-01-07T23:13:15.914Z,84.75
2023-01-07T23:15:42.999Z,84.86
2023-01-07T23:18:11.530Z,85.19
2023-01-07T23:20:41.345Z,84.64
2023-01-07T23:23:10.651Z,85.61
2023-01-07T23:25:45.271Z,84.79
2023-01-07T23:28:20.234Z,84.72
2023-01-07T23:30:48.198Z,85.08
2023-01-07T23:33:17.590Z,84.47
2023-01-07T23:35:44.741Z,83.70
2023-01-07T23:38:11.815Z,84.46
2023-01-07T23:40:40.943Z,84.55
2023-01-07T23:43:08.224Z,83.79
2023-01-07T23:45:35.338Z,84.03
2023-01-07T23:48:02.518Z,84.56
2023-01-07T23:50:29.599Z,84.36
2023-01-07T23:52:56.723Z,83.58
2023-01-07T23:55:23.880Z,84.11
2023-01-07T23:57:51.058Z,84.01
